createdAt,value
2022-10-15T17:19:23.621Z,991.51
2022-10-15T17:24:23.474Z,991.54
2022-10-15T17:29:24.667Z,991.57
2022-10-15T17:34:23.233Z,991.50
2022-10-15T17:39:23.234Z,991.60
2022-10-15T17:44:23.094Z,991.70
2022-10-15T17:49:23.132Z,991.59
2022-10-15T17:54:23.030Z,991.71
2022-10-15T17:59:23.059Z,991.83
2022-10-15T18:04:22.968Z,991.77
2022-10-15T18:09:25.886Z,991.76
2022-10-15T18:14:22.721Z,991.79
2022-10-15T18:19:22.999Z,991.82
2022-10-15T18:24:22.699Z,991.87
2022-10-15T18:30:40.229Z,992.00
2022-10-15T18:35:40.096Z,992.08
2022-10-15T18:40:41.197Z,992.12
2022-10-15T18:45:39.926Z,992.15
2022-10-15T18:50:39.895Z,992.14
2022-10-15T18:55:39.946Z,992.16
2022-10-15T19:00:39.866Z,992.18
2022-10-15T19:05:39.895Z,992.14
2022-10-15T19:10:39.593Z,992.06
2022-10-15T19:15:39.533Z,992.12
2022-10-15T19:20:42.462Z,992.20
2022-10-15T19:25:39.434Z,992.10
2022-10-15T19:30:39.320Z,992.25
2022-10-15T19:35:39.254Z,992.25
2022-10-15T19:40:39.319Z,992.16
2022-10-15T19:45:39.114Z,992.28
2022-10-15T19:50:39.128Z,992.49
2022-10-15T19:55:38.999Z,992.59
2022-10-15T20:00:38.926Z,992.60
2022-10-15T20:05:38.865Z,992.66
2022-10-15T20:10:38.905Z,992.66
2022-10-15T20:15:38.719Z,992.70
2022-10-15T20:20:41.734Z,992.92
2022-10-15T20:25:38.599Z,992.94
2022-10-15T20:30:38.764Z,993.01
2022-10-15T20:35:38.474Z,992.99
2022-10-15T20:40:38.550Z,993.03
2022-10-15T20:45:38.573Z,993.01
2022-10-15T20:50:38.394Z,993.01
2022-10-15T20:55:38.192Z,993.14
2022-10-15T21:00:38.150Z,993.18
2022-10-15T21:05:38.061Z,993.30
2022-10-15T21:10:37.984Z,993.36
2022-10-15T21:15:45.787Z,993.34
2022-10-15T21:22:10.519Z,993.52
2022-10-15T21:28:53.208Z,993.60
2022-10-15T21:36:10.687Z,993.75
2022-10-15T21:42:52.081Z,993.65
2022-10-15T21:49:09.789Z,993.80
2022-10-15T21:56:11.187Z,993.86
2022-10-15T22:01:13.551Z,993.86
2022-10-15T22:06:11.827Z,993.81
2022-10-15T22:11:10.757Z,993.78
2022-10-15T22:16:10.724Z,993.70
2022-10-15T22:21:10.638Z,993.68
2022-10-15T22:26:10.787Z,993.67
2022-10-15T22:31:21.098Z,993.76
2022-10-15T22:36:10.497Z,993.77
2022-10-15T22:41:10.521Z,993.79
2022-10-15T22:46:14.052Z,993.83
2022-10-15T22:51:10.267Z,993.79
2022-10-15T22:56:10.163Z,993.84
2022-10-15T23:01:10.218Z,993.83
2022-10-15T23:06:10.773Z,993.84
2022-10-15T23:11:10.059Z,993.91
2022-10-15T23:16:10.156Z,993.92
2022-10-15T23:21:09.832Z,993.92
2022-10-15T23:26:09.757Z,993.96
2022-10-15T23:31:09.709Z,994.12
2022-10-15T23:36:09.727Z,994.12
2022-10-15T23:41:09.657Z,994.17
2022-10-15T23:46:12.719Z,994.23
2022-10-15T23:51:09.483Z,994.23
2022-10-15T23:56:09.978Z,994.24
